Time;durP1;ratioP1;P1;durP2;ratioP2;P2;SDS_P1;SDS_P2;PMS_P1;PMS_P2;Temp;Humidity;BMP_temperature;BMP_pressure;BME280_temperature;BME280_humidity;BME280_pressure;Samples;Min_cycle;Max_cycle;Signal;HPM_P1;HPM_P2
2022/04/30 13:20:31;;;;;;;7.40;2.80;;;17.10;61.00;;;;;;6330854;22;20059;-74
2022/04/30 13:22:56;;;;;;;3.33;2.70;;;16.80;62.70;;;;;;6289099;22;20030;-73
2022/04/30 13:25:23;;;;;;;3.75;2.90;;;16.90;62.60;;;;;;6312636;22;20011;-74
2022/04/30 13:27:49;;;;;;;4.28;2.83;;;16.90;62.40;;;;;;6313642;22;20032;-74
2022/04/30 13:30:17;;;;;;;3.20;2.50;;;16.80;61.50;;;;;;6314463;22;20399;-91
2022/04/30 13:35:19;;;;;;;3.22;2.53;;;16.60;63.20;;;;;;6339996;22;20033;-74
2022/04/30 13:37:45;;;;;;;5.53;2.80;;;16.60;63.40;;;;;;6288328;22;20398;-73
2022/04/30 13:40:13;;;;;;;3.35;2.63;;;16.50;63.90;;;;;;6289144;22;20015;-73
2022/04/30 13:42:39;;;;;;;6.03;2.70;;;16.40;64.30;;;;;;6314136;22;20018;-74
2022/04/30 14:04:26;;;;;;;5.05;3.33;;;16.60;63.50;;;;;;6215982;23;20024;-72
2022/04/30 14:07:09;;;;;;;3.90;3.50;;;16.90;64.10;;;;;;6192274;23;20016;-72
2022/04/30 14:09:35;;;;;;;5.03;3.50;;;16.80;65.10;;;;;;6214781;23;20016;-73
2022/04/30 14:12:03;;;;;;;5.07;3.40;;;17.10;63.90;;;;;;6217184;23;20023;-74
2022/04/30 14:19:28;;;;;;;5.57;3.83;;;17.10;62.00;;;;;;5047521;28;20896;-71
2022/04/30 14:21:54;;;;;;;3.95;3.58;;;17.20;64.10;;;;;;4927116;28;20057;-71
2022/04/30 14:24:20;;;;;;;4.65;3.60;;;17.10;63.30;;;;;;5031606;28;20062;-72
2022/04/30 14:26:47;;;;;;;5.32;4.10;;;17.20;63.60;;;;;;5012874;28;20041;-71
2022/04/30 14:29:13;;;;;;;4.50;3.85;;;17.20;64.20;;;;;;4958669;28;20485;-71
2022/04/30 14:31:39;;;;;;;5.43;4.10;;;17.20;64.90;;;;;;4991479;28;20087;-71
2022/04/30 14:34:05;;;;;;;5.25;3.47;;;17.20;64.60;;;;;;5026355;28;20393;-70
2022/04/30 14:36:33;;;;;;;5.82;4.10;;;17.30;64.60;;;;;;4974630;28;20425;-71
2022/04/30 14:39:01;;;;;;;5.65;3.70;;;17.30;64.40;;;;;;5022999;28;20512;-71
2022/04/30 14:41:27;;;;;;;6.88;4.40;;;17.30;64.90;;;;;;5026788;28;20397;-71
2022/04/30 14:43:53;;;;;;;6.65;4.05;;;17.10;64.50;;;;;;5028787;28;20045;-70
2022/04/30 14:46:19;;;;;;;6.57;3.60;;;17.00;64.70;;;;;;5045445;28;20057;-71
2022/04/30 14:48:45;;;;;;;4.60;3.50;;;16.90;64.90;;;;;;5024116;28;20072;-70
2022/04/30 14:51:11;;;;;;;5.30;4.13;;;17.00;64.90;;;;;;5028378;28;20064;-70
2022/04/30 14:53:36;;;;;;;7.00;4.25;;;16.80;64.50;;;;;;5008405;28;20045;-71
2022/04/30 14:56:02;;;;;;;6.30;3.85;;;17.00;65.40;;;;;;5025094;28;20134;-70
2022/04/30 14:58:28;;;;;;;5.00;3.90;;;17.00;65.10;;;;;;5025867;28;20195;-70
2022/04/30 15:00:54;;;;;;;5.70;3.67;;;16.80;64.20;;;;;;5021393;28;20041;-71
2022/04/30 15:03:20;;;;;;;5.65;3.70;;;16.90;64.70;;;;;;5028379;28;20056;-71
2022/04/30 15:05:46;;;;;;;6.10;3.92;;;16.80;64.70;;;;;;5023989;28;20470;-71
2022/04/30 15:08:13;;;;;;;4.72;3.95;;;16.80;65.10;;;;;;5036292;28;20052;-70
2022/04/30 15:10:39;;;;;;;8.10;3.88;;;17.00;65.70;;;;;;5021784;28;20038;-72
2022/04/30 15:13:05;;;;;;;5.70;3.55;;;17.10;65.70;;;;;;5008099;28;20099;-71
2022/04/30 15:15:32;;;;;;;4.38;3.97;;;17.10;65.90;;;;;;5026171;28;20049;-71
2022/04/30 15:17:58;;;;;;;6.25;4.13;;;17.10;66.00;;;;;;5010729;28;20118;-70
2022/04/30 15:20:25;;;;;;;4.95;3.92;;;17.20;66.30;;;;;;5026281;28;20054;-72
2022/04/30 15:22:51;;;;;;;7.00;4.18;;;17.20;66.00;;;;;;5027376;28;20062;-70
2022/04/30 15:25:16;;;;;;;5.97;4.32;;;17.10;66.00;;;;;;5021513;28;20057;-72
2022/04/30 15:27:42;;;;;;;5.63;4.28;;;17.10;66.40;;;;;;5023258;28;20049;-71
2022/04/30 15:30:09;;;;;;;5.53;3.70;;;17.10;66.40;;;;;;5012588;28;20160;-72
2022/04/30 15:32:34;;;;;;;4.82;3.92;;;17.30;67.00;;;;;;4985380;28;20444;-74
2022/04/30 15:35:00;;;;;;;6.65;3.78;;;17.30;66.70;;;;;;4992177;28;20038;-72
2022/04/30 15:37:26;;;;;;;5.75;4.38;;;17.30;67.00;;;;;;4992360;28;20095;-72
2022/04/30 15:39:52;;;;;;;6.88;3.95;;;17.20;66.50;;;;;;5008743;28;20135;-73
2022/04/30 15:42:18;;;;;;;6.78;4.05;;;16.90;66.00;;;;;;5018795;28;20054;-73
2022/04/30 15:44:43;;;;;;;6.20;4.30;;;16.70;66.00;;;;;;5007455;28;20128;-73
2022/04/30 15:52:38;;;;;;;4.90;4.10;;;16.20;66.80;;;;;;5008726;28;20046;-72
2022/04/30 15:55:04;;;;;;;5.30;3.80;;;16.30;66.60;;;;;;5008337;28;20052;-73
2022/04/30 15:57:31;;;;;;;6.78;4.20;;;16.30;66.80;;;;;;5008682;28;20041;-73
2022/04/30 15:59:56;;;;;;;4.95;3.72;;;15.70;67.50;;;;;;5008445;28;20120;-74
2022/04/30 16:02:22;;;;;;;5.55;4.40;;;15.60;67.80;;;;;;4991525;28;20049;-73
2022/04/30 16:04:48;;;;;;;5.53;4.05;;;15.40;69.30;;;;;;4976729;28;20050;-73
2022/04/30 16:07:14;;;;;;;5.80;4.20;;;15.20;70.60;;;;;;5008344;28;20050;-73
2022/04/30 16:09:40;;;;;;;6.63;3.88;;;15.10;74.00;;;;;;4973993;28;20041;-72
2022/04/30 16:12:06;;;;;;;5.25;4.10;;;15.10;75.10;;;;;;4975498;28;20054;-73
2022/04/30 16:14:34;;;;;;;4.65;3.80;;;14.90;76.40;;;;;;5008809;28;20474;-73
2022/04/30 16:17:00;;;;;;;5.30;3.95;;;15.00;78.90;;;;;;5008067;28;20391;-72
2022/04/30 16:19:25;;;;;;;5.82;4.13;;;14.90;79.50;;;;;;4974805;28;20140;-73
2022/04/30 16:21:51;;;;;;;6.32;3.90;;;14.70;79.80;;;;;;5007099;28;20042;-72
2022/04/30 16:24:19;;;;;;;5.95;3.75;;;14.70;79.30;;;;;;4990985;28;20513;-73
2022/04/30 16:26:45;;;;;;;5.72;4.07;;;14.50;78.10;;;;;;5006603;28;20153;-73
2022/04/30 16:29:11;;;;;;;4.85;3.47;;;14.30;82.30;;;;;;5007534;28;20049;-73
2022/04/30 16:31:37;;;;;;;5.75;3.65;;;14.30;79.20;;;;;;5008569;28;20394;-73
2022/04/30 16:34:03;;;;;;;6.38;4.07;;;14.20;78.90;;;;;;5007478;28;20052;-76
2022/04/30 16:36:31;;;;;;;5.95;4.00;;;14.10;83.30;;;;;;5007611;28;20188;-75
2022/04/30 16:39:01;;;;;;;5.20;4.38;;;13.90;88.90;;;;;;5010406;28;20077;-73
2022/04/30 16:41:27;;;;;;;7.47;4.55;;;13.90;94.50;;;;;;5010809;28;20130;-73
2022/04/30 16:43:53;;;;;;;8.35;4.70;;;13.70;94.70;;;;;;5010927;28;20046;-73
2022/04/30 16:46:19;;;;;;;9.30;4.97;;;13.60;99.10;;;;;;5028538;28;20553;-74
2022/04/30 16:48:45;;;;;;;8.88;4.97;;;13.70;99.90;;;;;;5010708;28;20054;-74
2022/04/30 16:53:54;;;;;;;6.97;5.47;;;13.60;99.90;;;;;;5011343;28;20050;-72
2022/04/30 16:59:07;;;;;;;5.80;4.68;;;13.40;99.90;;;;;;5010581;28;20042;-73
2022/04/30 17:01:34;;;;;;;8.27;4.88;;;14.10;99.90;;;;;;5011563;28;20457;-71
2022/04/30 17:04:00;;;;;;;7.57;4.95;;;13.30;99.90;;;;;;5011943;28;20100;-71
2022/04/30 17:06:29;;;;;;;7.40;4.85;;;13.20;99.90;;;;;;5016495;28;20302;-71
2022/04/30 17:08:58;;;;;;;6.57;4.90;;;13.10;99.90;;;;;;5014231;28;20046;-72
2022/04/30 17:11:24;;;;;;;6.85;4.68;;;13.10;99.90;;;;;;4977200;28;20046;-72
2022/04/30 17:13:50;;;;;;;8.75;5.10;;;13.00;99.90;;;;;;4998718;28;20046;-73
2022/04/30 17:16:15;;;;;;;7.45;4.88;;;12.90;99.90;;;;;;4993765;28;20056;-72
2022/04/30 17:18:41;;;;;;;7.78;5.03;;;12.80;99.90;;;;;;5011190;28;20520;-72
2022/04/30 17:21:07;;;;;;;9.02;6.53;;;12.80;99.90;;;;;;5016344;28;20049;-72
2022/04/30 17:23:33;;;;;;;7.45;5.32;;;12.80;99.90;;;;;;5012798;28;20132;-72
2022/04/30 17:26:02;;;;;;;7.18;4.93;;;12.70;99.90;;;;;;5008747;28;20184;-71
2022/04/30 17:28:28;;;;;;;6.72;4.50;;;12.70;99.90;;;;;;5012522;28;20089;-72
2022/04/30 17:39:06;;;;;;;5.40;4.68;;;12.40;99.90;;;;;;5006955;28;20132;-72
2022/04/30 17:41:32;;;;;;;6.45;5.22;;;12.30;99.90;;;;;;5005722;28;20057;-72
2022/04/30 17:43:58;;;;;;;9.48;5.05;;;12.30;99.90;;;;;;5007022;28;20123;-72
2022/04/30 17:46:24;;;;;;;5.97;5.10;;;12.30;99.90;;;;;;4990459;28;20033;-72
2022/04/30 17:48:50;;;;;;;7.22;5.22;;;12.20;99.90;;;;;;5006973;28;20048;-72
2022/04/30 17:51:15;;;;;;;7.72;5.78;;;12.10;99.90;;;;;;5004909;28;20497;-72
2022/04/30 17:53:41;;;;;;;8.95;5.95;;;12.10;99.90;;;;;;4990273;28;20045;-72
2022/04/30 17:56:08;;;;;;;8.45;5.82;;;11.90;99.90;;;;;;5006716;28;21287;-72
2022/04/30 17:58:33;;;;;;;6.85;5.72;;;11.90;99.90;;;;;;5006819;28;20092;-72
2022/04/30 18:00:59;;;;;;;8.93;5.50;;;11.80;99.90;;;;;;5007129;28;20477;-72
2022/04/30 18:03:25;;;;;;;8.05;5.25;;;11.80;99.90;;;;;;5006829;28;20076;-72
2022/04/30 18:05:53;;;;;;;6.78;5.43;;;11.70;99.90;;;;;;4989374;28;20378;-72
2022/04/30 18:08:19;;;;;;;7.43;5.72;;;11.60;99.90;;;;;;4990499;28;20053;-73
2022/04/30 18:10:45;;;;;;;6.75;5.13;;;11.60;99.90;;;;;;4995309;28;20540;-72
2022/04/30 18:13:13;;;;;;;7.43;5.70;;;11.60;99.90;;;;;;5005484;28;20499;-72
2022/04/30 18:15:39;;;;;;;30.63;15.45;;;11.50;99.90;;;;;;5006766;28;20049;-74
2022/04/30 18:18:07;;;;;;;19.27;11.15;;;11.50;99.90;;;;;;5005359;28;20490;-72
2022/04/30 18:20:37;;;;;;;9.10;6.53;;;11.40;99.90;;;;;;5004936;28;20042;-73
2022/04/30 18:23:06;;;;;;;9.38;7.10;;;11.40;99.90;;;;;;5006539;28;20576;-72
2022/04/30 18:25:34;;;;;;;8.25;5.72;;;11.30;99.90;;;;;;4973602;28;20509;-72
2022/04/30 18:28:01;;;;;;;9.35;5.72;;;11.30;99.90;;;;;;5007681;28;20053;-72
2022/04/30 18:30:29;;;;;;;7.70;5.72;;;11.20;99.90;;;;;;5010151;28;20164;-72
2022/04/30 18:32:56;;;;;;;9.52;5.68;;;11.20;99.90;;;;;;5010358;28;20513;-73
2022/04/30 18:35:23;;;;;;;7.47;5.80;;;11.10;99.90;;;;;;5008477;28;20969;-73
2022/04/30 18:37:52;;;;;;;9.88;6.55;;;11.00;99.90;;;;;;5012404;28;20056;-72
2022/04/30 18:40:18;;;;;;;8.23;5.97;;;10.90;99.90;;;;;;5009834;28;20591;-73
2022/04/30 18:42:44;;;;;;;9.10;5.93;;;10.90;99.90;;;;;;5010299;28;20391;-73
2022/04/30 18:45:10;;;;;;;10.23;6.32;;;10.90;99.90;;;;;;4988066;28;20064;-72
2022/04/30 18:47:37;;;;;;;11.00;6.43;;;10.80;99.90;;;;;;5010642;28;20054;-73
2022/04/30 18:50:04;;;;;;;7.97;6.18;;;10.70;99.90;;;;;;5009532;28;20505;-72
2022/04/30 18:52:29;;;;;;;11.23;7.82;;;10.70;99.90;;;;;;5010687;28;20492;-72
2022/04/30 19:03:09;;;;;;;10.48;6.57;;;10.50;99.90;;;;;;4994527;28;20053;-72
2022/04/30 19:05:37;;;;;;;8.82;6.95;;;10.50;99.90;;;;;;5011992;28;20133;-71
2022/04/30 19:08:05;;;;;;;10.75;6.80;;;10.40;99.90;;;;;;5013440;28;20413;-71
2022/04/30 19:10:31;;;;;;;13.82;6.63;;;10.40;99.90;;;;;;5013450;28;20100;-72
2022/04/30 19:12:58;;;;;;;11.80;7.40;;;10.40;99.90;;;;;;5005142;28;20473;-72
2022/04/30 19:15:24;;;;;;;8.93;7.13;;;10.30;99.90;;;;;;4992592;28;20057;-71
2022/04/30 19:17:50;;;;;;;8.65;7.05;;;10.20;99.90;;;;;;5003386;28;20061;-71
2022/04/30 19:20:16;;;;;;;13.32;7.05;;;10.20;99.90;;;;;;4991184;28;20065;-72
2022/04/30 19:22:42;;;;;;;11.68;7.20;;;10.10;99.90;;;;;;4993109;28;20049;-71
2022/04/30 19:25:08;;;;;;;10.25;6.70;;;10.10;99.90;;;;;;5009061;28;20082;-72
2022/04/30 19:27:34;;;;;;;9.10;6.45;;;10.00;99.90;;;;;;5009431;28;20397;-71
2022/04/30 19:30:00;;;;;;;12.63;7.05;;;10.00;99.90;;;;;;4991641;28;20050;-71
2022/04/30 19:32:28;;;;;;;10.68;6.55;;;9.90;99.90;;;;;;4993225;28;20081;-71
2022/04/30 19:34:54;;;;;;;41.22;20.08;;;9.90;99.90;;;;;;5009137;28;20552;-72
2022/04/30 19:37:20;;;;;;;18.02;9.50;;;9.80;99.90;;;;;;4992599;28;20050;-72
2022/04/30 19:39:52;;;;;;;91.57;56.13;;;9.70;99.90;;;;;;5024841;28;20045;-71
2022/04/30 19:42:24;;;;;;;17.95;11.00;;;9.90;99.90;;;;;;4993242;28;20069;-71
2022/04/30 19:44:52;;;;;;;12.90;8.50;;;9.60;99.90;;;;;;5008511;28;20060;-72
2022/04/30 19:47:18;;;;;;;15.55;8.10;;;9.50;99.90;;;;;;5008897;28;20053;-72
2022/04/30 19:49:45;;;;;;;13.35;8.77;;;9.40;99.90;;;;;;4990828;28;20108;-71
2022/04/30 19:52:11;;;;;;;12.05;8.10;;;9.30;99.90;;;;;;5008894;28;20056;-71
2022/04/30 19:54:37;;;;;;;11.02;8.20;;;9.30;99.90;;;;;;5004182;28;20042;-71
2022/04/30 19:57:04;;;;;;;10.60;7.93;;;9.20;99.90;;;;;;5008734;28;20470;-71
2022/04/30 19:59:32;;;;;;;12.65;8.23;;;9.20;99.90;;;;;;5007545;28;20104;-71
2022/04/30 20:01:59;;;;;;;13.43;8.02;;;9.10;99.90;;;;;;5007793;28;20444;-72
2022/04/30 20:04:25;;;;;;;11.90;8.82;;;9.00;99.90;;;;;;5006588;28;20041;-72
2022/04/30 20:06:51;;;;;;;13.88;8.80;;;9.00;99.90;;;;;;5008341;28;20049;-71
2022/04/30 20:09:16;;;;;;;14.93;9.02;;;8.90;99.90;;;;;;4991956;28;20379;-72
2022/04/30 20:17:11;;;;;;;14.85;9.45;;;8.80;99.90;;;;;;5012364;28;20433;-71
2022/04/30 20:19:36;;;;;;;12.52;8.88;;;8.60;99.90;;;;;;5011206;28;20054;-71
2022/04/30 20:22:06;;;;;;;15.90;9.55;;;8.60;99.90;;;;;;5009508;28;20034;-71
2022/04/30 20:24:33;;;;;;;14.15;9.20;;;8.50;99.90;;;;;;5008988;28;20052;-71
2022/04/30 20:26:59;;;;;;;12.60;9.30;;;8.50;99.90;;;;;;5007903;28;20045;-71
2022/04/30 20:29:25;;;;;;;15.15;9.50;;;8.40;99.90;;;;;;5011877;28;20525;-72
2022/04/30 20:37:20;;;;;;;17.92;10.60;;;8.30;99.90;;;;;;5013786;28;20061;-71
2022/04/30 20:39:47;;;;;;;15.63;9.70;;;8.40;99.90;;;;;;5013003;28;20045;-71
2022/04/30 20:42:13;;;;;;;14.43;10.10;;;8.20;99.90;;;;;;5007398;28;20080;-72
2022/04/30 20:44:43;;;;;;;21.45;13.10;;;8.10;99.90;;;;;;5006586;28;20133;-72
2022/04/30 20:47:10;;;;;;;15.60;10.18;;;8.10;99.90;;;;;;5006834;28;20129;-72
2022/04/30 20:49:37;;;;;;;14.27;10.35;;;8.10;99.90;;;;;;5007593;28;20061;-72
2022/04/30 20:52:05;;;;;;;16.63;9.50;;;8.10;99.90;;;;;;5007216;28;20048;-73
2022/04/30 20:54:31;;;;;;;14.82;9.60;;;8.00;99.90;;;;;;5010667;28;20084;-72
2022/04/30 20:56:57;;;;;;;14.25;9.82;;;7.90;99.90;;;;;;5012120;28;20049;-72
2022/04/30 20:59:22;;;;;;;18.17;10.63;;;7.90;99.90;;;;;;5009222;28;20486;-71
2022/04/30 21:01:48;;;;;;;16.65;11.00;;;7.80;99.90;;;;;;5011545;28;20053;-72
2022/04/30 21:04:14;;;;;;;18.13;11.32;;;7.80;99.90;;;;;;5004845;28;20630;-72
2022/04/30 21:06:41;;;;;;;17.25;11.00;;;7.80;99.90;;;;;;5006517;28;20080;-71
2022/04/30 21:09:10;;;;;;;19.45;11.00;;;7.80;99.90;;;;;;5006205;28;20050;-72
2022/04/30 21:11:38;;;;;;;16.58;11.02;;;7.70;99.90;;;;;;5002596;28;20097;-72
2022/04/30 21:14:04;;;;;;;16.42;11.60;;;7.70;99.90;;;;;;5008499;28;20082;-69
2022/04/30 21:16:30;;;;;;;18.25;12.10;;;8.00;99.90;;;;;;5012993;28;20034;-75
2022/04/30 21:18:56;;;;;;;16.23;10.32;;;7.70;99.90;;;;;;4996800;28;20053;-70
2022/04/30 21:21:23;;;;;;;17.75;11.77;;;7.70;99.90;;;;;;5009351;28;20077;-69
2022/04/30 21:23:49;;;;;;;15.18;9.60;;;7.70;99.90;;;;;;5011450;28;20492;-70
2022/04/30 21:26:17;;;;;;;13.93;9.43;;;8.10;99.90;;;;;;5011564;28;20093;-70
2022/04/30 21:28:44;;;;;;;17.85;11.02;;;7.60;99.90;;;;;;5010995;28;20446;-70
2022/04/30 21:31:14;;;;;;;18.40;11.85;;;7.60;99.90;;;;;;5009542;28;20089;-71
2022/04/30 21:33:41;;;;;;;16.55;10.55;;;7.70;99.90;;;;;;5004443;28;20056;-70
2022/04/30 21:36:08;;;;;;;15.65;10.15;;;7.40;99.90;;;;;;5002766;28;20103;-72
2022/04/30 21:38:34;;;;;;;18.27;11.90;;;7.20;99.90;;;;;;5005422;28;20046;-71
2022/04/30 21:43:45;;;;;;;20.48;11.98;;;7.10;99.90;;;;;;5003005;28;20980;-70
2022/04/30 21:46:11;;;;;;;18.25;11.93;;;7.00;99.90;;;;;;5023549;28;20055;-70
2022/04/30 21:48:37;;;;;;;17.65;12.50;;;7.00;99.90;;;;;;5006613;28;20053;-70
2022/04/30 21:51:03;;;;;;;17.65;12.32;;;7.00;99.90;;;;;;4998603;28;20132;-70
2022/04/30 21:53:29;;;;;;;21.17;13.02;;;6.90;99.90;;;;;;5002982;28;20101;-71
2022/04/30 22:01:25;;;;;;;20.33;11.85;;;7.30;99.90;;;;;;5004376;28;20144;-70
2022/04/30 22:03:51;;;;;;;18.50;11.40;;;6.80;99.90;;;;;;5021372;28;20050;-70
2022/04/30 22:06:17;;;;;;;19.00;11.25;;;6.80;99.90;;;;;;4979736;28;20406;-72
2022/04/30 22:08:47;;;;;;;19.50;11.52;;;6.90;99.90;;;;;;4986484;28;20065;-70
2022/04/30 22:11:14;;;;;;;17.15;11.00;;;6.70;99.90;;;;;;5003230;28;20048;-70
2022/04/30 22:13:41;;;;;;;16.63;11.02;;;6.70;99.90;;;;;;5004494;28;20052;-70
2022/04/30 22:16:08;;;;;;;17.95;11.93;;;6.50;99.90;;;;;;5005723;28;20095;-71
2022/04/30 22:18:34;;;;;;;22.38;12.65;;;6.50;99.90;;;;;;5003656;28;20088;-70
2022/04/30 22:21:00;;;;;;;18.88;11.90;;;6.40;99.90;;;;;;5004516;28;20050;-70
2022/04/30 22:23:26;;;;;;;16.92;11.48;;;6.60;99.90;;;;;;5022708;28;20050;-69
2022/04/30 22:25:52;;;;;;;18.65;11.75;;;6.50;99.90;;;;;;5006210;28;20460;-70
2022/04/30 22:28:22;;;;;;;18.17;11.70;;;6.50;99.90;;;;;;5007428;28;20558;-70
2022/04/30 22:30:56;;;;;;;15.02;9.77;;;6.80;99.90;;;;;;4986474;28;20076;-72
2022/04/30 22:33:23;;;;;;;15.88;10.93;;;6.40;99.90;;;;;;5010288;28;20498;-70
2022/04/30 22:35:48;;;;;;;16.92;10.85;;;6.40;99.90;;;;;;5005025;28;20111;-70
2022/04/30 22:38:14;;;;;;;15.38;10.75;;;6.20;99.90;;;;;;5005336;28;20537;-71
2022/04/30 22:43:28;;;;;;;19.77;11.45;;;6.40;99.90;;;;;;4992515;28;20076;-71
2022/04/30 22:45:54;;;;;;;19.80;11.50;;;6.00;99.90;;;;;;5007604;28;20057;-71
2022/04/30 22:48:23;;;;;;;19.20;12.07;;;6.10;99.90;;;;;;4997555;28;20054;-70
2022/04/30 22:50:50;;;;;;;21.67;13.02;;;6.20;99.90;;;;;;5006417;28;20057;-71
2022/04/30 22:53:17;;;;;;;22.17;12.23;;;6.00;99.90;;;;;;4984787;28;20061;-71
2022/04/30 22:55:43;;;;;;;22.15;12.45;;;5.90;99.90;;;;;;5007675;28;20522;-72
2022/04/30 22:58:09;;;;;;;21.65;12.63;;;5.90;99.90;;;;;;5005279;28;20133;-72
2022/04/30 23:00:35;;;;;;;20.10;12.10;;;6.30;99.90;;;;;;5011684;28;20128;-71
2022/04/30 23:03:00;;;;;;;20.80;12.50;;;5.90;99.90;;;;;;5012415;28;20084;-71
2022/04/30 23:05:26;;;;;;;15.63;11.15;;;6.30;99.90;;;;;;5026130;28;20057;-71
2022/04/30 23:07:52;;;;;;;17.83;10.70;;;5.90;99.90;;;;;;4991423;28;20088;-70
2022/04/30 23:10:22;;;;;;;15.10;10.10;;;5.90;99.90;;;;;;5011076;28;20069;-70
2022/04/30 23:12:49;;;;;;;15.30;10.80;;;5.80;99.90;;;;;;5011996;28;20062;-71
2022/04/30 23:15:16;;;;;;;13.25;8.80;;;5.90;99.90;;;;;;5006192;28;20049;-70
2022/04/30 23:17:43;;;;;;;18.35;11.98;;;5.70;99.90;;;;;;4990486;28;20145;-71
2022/04/30 23:20:09;;;;;;;19.48;12.02;;;5.60;99.90;;;;;;4996623;28;20502;-70
2022/04/30 23:22:36;;;;;;;20.80;11.15;;;5.60;99.90;;;;;;5008639;28;20057;-71
2022/04/30 23:25:03;;;;;;;19.45;11.68;;;5.60;99.90;;;;;;5001731;28;20077;-71
2022/04/30 23:27:29;;;;;;;16.70;10.23;;;5.60;99.90;;;;;;5000156;28;20070;-72
2022/04/30 23:29:56;;;;;;;11.48;8.05;;;5.60;99.90;;;;;;5007314;28;20050;-72
2022/04/30 23:32:22;;;;;;;16.60;9.95;;;5.40;99.90;;;;;;4989211;28;20042;-70
2022/04/30 23:34:48;;;;;;;20.42;12.45;;;5.40;99.90;;;;;;5009288;28;20042;-70
2022/04/30 23:37:14;;;;;;;16.55;10.65;;;5.80;99.90;;;;;;5006967;28;20080;-70
2022/04/30 23:39:40;;;;;;;17.10;11.82;;;5.30;99.90;;;;;;5006784;28;20045;-70
2022/04/30 23:42:06;;;;;;;21.40;13.23;;;5.30;99.90;;;;;;5007792;28;20038;-70
2022/04/30 23:44:31;;;;;;;24.02;13.70;;;5.30;99.90;;;;;;5022186;28;20406;-70
2022/04/30 23:46:57;;;;;;;21.50;12.32;;;5.30;99.90;;;;;;5004819;28;20049;-70
2022/04/30 23:49:23;;;;;;;19.17;12.77;;;5.30;99.90;;;;;;4974447;28;20116;-70
2022/04/30 23:51:51;;;;;;;21.67;12.63;;;5.30;99.90;;;;;;5029239;28;20046;-70
2022/04/30 23:54:16;;;;;;;19.45;12.45;;;5.30;99.90;;;;;;5008312;28;21659;-71
2022/04/30 23:56:43;;;;;;;23.58;14.20;;;5.40;99.90;;;;;;5006508;28;20478;-71
2022/04/30 23:59:09;;;;;;;19.88;12.90;;;5.90;99.90;;;;;;5006778;28;20058;-72
